Time;durP1;ratioP1;P1;durP2;ratioP2;P2;SDS_P1;SDS_P2;PMS_P1;PMS_P2;Temp;Humidity;BMP_temperature;BMP_pressure;BME280_temperature;BME280_humidity;BME280_pressure;Samples;Min_cycle;Max_cycle;Signal;HPM_P1;HPM_P2
2021/08/23 00:01:47;;;;;;;;;;;;;;;20.75;100.00;99248.63;5013554;28;19971;-80
2021/08/23 00:04:14;;;;;;;;;;;;;;;20.81;100.00;99252.63;5010660;28;19920;-80
2021/08/23 00:06:39;;;;;;;;;;;;;;;20.65;100.00;99253.69;5011011;28;20328;-80
2021/08/23 00:09:04;;;;;;;;;;;;;;;20.21;100.00;99249.69;5008296;28;19980;-80
2021/08/23 00:11:30;;;;;;;;;;;;;;;20.54;100.00;99239.63;4995018;28;19926;-81
2021/08/23 00:13:55;;;;;;;;;;;;;;;20.40;100.00;99243.22;5009227;28;19918;-80
2021/08/23 00:16:20;;;;;;;;;;;;;;;20.39;100.00;99244.13;4993977;28;19913;-80
2021/08/23 00:18:47;;;;;;;;;;;;;;;20.18;100.00;99252.50;5009335;28;19921;-79
2021/08/23 00:21:20;;;;;;;;;;;;;;;20.73;100.00;99247.91;5009608;28;19944;-80
2021/08/23 00:23:50;;;;;;;;;;;;;;;20.70;100.00;99244.66;4987356;28;19921;-79
2021/08/23 00:26:15;;;;;;;;;;;;;;;19.94;100.00;99248.94;5008190;28;19918;-79
2021/08/23 00:28:41;;;;;;;;;;;;;;;20.17;100.00;99242.16;4993575;28;20286;-80
2021/08/23 00:31:06;;;;;;;;;;;;;;;20.18;100.00;99249.88;4995901;28;19933;-80
2021/08/23 00:33:31;;;;;;;;;;;;;;;20.27;100.00;99245.81;5013589;28;19936;-80
2021/08/23 00:35:57;;;;;;;;;;;;;;;20.28;99.25;99250.13;4997143;28;19927;-80
2021/08/23 00:38:22;;;;;;;;;;;;;;;20.51;100.00;99255.56;5010270;28;19918;-80
2021/08/23 00:40:47;;;;;;;;;;;;;;;20.58;100.00;99256.84;5009643;28;19971;-80
2021/08/23 00:43:12;;;;;;;;;;;;;;;19.61;100.00;99260.63;5010005;28;20348;-80
2021/08/23 00:45:38;;;;;;;;;;;;;;;19.68;100.00;99256.69;5009646;28;19913;-80
2021/08/23 00:48:04;;;;;;;;;;;;;;;19.58;100.00;99264.28;5007950;28;20393;-80
2021/08/23 00:50:29;;;;;;;;;;;;;;;19.72;100.00;99262.59;5009941;28;20415;-80
2021/08/23 00:52:55;;;;;;;;;;;;;;;20.38;100.00;99266.84;5010574;28;19914;-80
2021/08/23 00:55:20;;;;;;;;;;;;;;;20.67;100.00;99270.13;4994574;28;20020;-80
2021/08/23 00:57:45;;;;;;;;;;;;;;;20.76;100.00;99278.28;5009093;28;20325;-80
2021/08/23 01:00:11;;;;;;;;;;;;;;;20.74;98.96;99278.38;5010971;28;20328;-80
2021/08/23 01:02:46;;;;;;;;;;;;;;;20.16;100.00;99282.31;5009376;28;19921;-80
2021/08/23 01:05:16;;;;;;;;;;;;;;;20.63;100.00;99286.13;4994716;28;19926;-80
2021/08/23 01:08:01;;;;;;;;;;;;;;;20.93;99.88;99288.38;5009519;28;19996;-80
2021/08/23 01:10:28;;;;;;;;;;;;;;;20.99;100.00;99287.97;4996920;28;20399;-82
2021/08/23 01:12:54;;;;;;;;;;;;;;;20.93;100.00;99290.19;5008879;28;19960;-80
2021/08/23 01:15:20;;;;;;;;;;;;;;;20.97;100.00;99292.47;5009480;28;19921;-80
2021/08/23 01:17:45;;;;;;;;;;;;;;;21.00;100.00;99304.50;5014158;28;20008;-81
2021/08/23 01:20:10;;;;;;;;;;;;;;;20.93;100.00;99298.84;5014136;28;19914;-80
2021/08/23 01:22:38;;;;;;;;;;;;;;;20.85;100.00;99302.03;4995927;28;20581;-80
2021/08/23 01:25:03;;;;;;;;;;;;;;;20.75;100.00;99295.75;5016183;28;19918;-80
2021/08/23 01:27:29;;;;;;;;;;;;;;;20.70;100.00;99291.78;5014079;28;19967;-79
2021/08/23 01:29:56;;;;;;;;;;;;;;;20.72;100.00;99298.56;5014074;28;19913;-80
2021/08/23 01:32:22;;;;;;;;;;;;;;;19.92;100.00;99305.72;5012705;28;19918;-80
2021/08/23 01:34:49;;;;;;;;;;;;;;;20.12;100.00;99307.03;5014566;28;19928;-79
2021/08/23 01:37:15;;;;;;;;;;;;;;;20.26;100.00;99305.13;4995696;28;19913;-80
2021/08/23 01:39:40;;;;;;;;;;;;;;;20.76;100.00;99297.44;5011012;28;20284;-80
2021/08/23 01:42:06;;;;;;;;;;;;;;;20.79;100.00;99302.44;5014744;28;19921;-80
2021/08/23 01:44:31;;;;;;;;;;;;;;;20.94;100.00;99305.78;5012444;28;20864;-80
2021/08/23 01:46:56;;;;;;;;;;;;;;;20.55;100.00;99304.09;5011562;28;19921;-80
2021/08/23 01:49:22;;;;;;;;;;;;;;;20.59;100.00;99302.97;5011806;28;20404;-81
2021/08/23 01:51:47;;;;;;;;;;;;;;;20.75;100.00;99300.97;4998390;28;20296;-79
2021/08/23 01:54:12;;;;;;;;;;;;;;;20.91;100.00;99305.97;5012137;28;19913;-81
2021/08/23 01:56:38;;;;;;;;;;;;;;;20.78;96.39;99306.03;5011043;28;19914;-79
2021/08/23 01:59:03;;;;;;;;;;;;;;;20.80;98.12;99314.59;5012694;28;19913;-80
2021/08/23 02:01:29;;;;;;;;;;;;;;;20.81;100.00;99316.25;5014198;28;19968;-80
2021/08/23 02:03:55;;;;;;;;;;;;;;;20.69;100.00;99311.88;5010645;28;19918;-80
2021/08/23 02:06:20;;;;;;;;;;;;;;;20.64;100.00;99313.97;5010362;28;19921;-80
2021/08/23 02:08:46;;;;;;;;;;;;;;;20.92;100.00;99315.53;5009294;28;19910;-80
2021/08/23 02:11:11;;;;;;;;;;;;;;;20.95;100.00;99312.69;5011782;28;20057;-81
2021/08/23 02:13:36;;;;;;;;;;;;;;;20.83;100.00;99314.38;5018652;28;19925;-80
2021/08/23 02:16:01;;;;;;;;;;;;;;;20.61;100.00;99319.41;5011586;28;19917;-79
2021/08/23 02:18:27;;;;;;;;;;;;;;;20.05;100.00;99323.09;4998709;28;19922;-80
2021/08/23 02:20:52;;;;;;;;;;;;;;;19.69;100.00;99322.91;4996866;28;20404;-79
2021/08/23 02:23:18;;;;;;;;;;;;;;;19.99;100.00;99326.09;4997428;28;19921;-80
2021/08/23 02:25:43;;;;;;;;;;;;;;;20.12;100.00;99322.69;5013365;28;19917;-80
2021/08/23 02:28:08;;;;;;;;;;;;;;;20.04;100.00;99329.25;5010423;28;19924;-80
2021/08/23 02:30:34;;;;;;;;;;;;;;;19.78;100.00;99324.91;5012654;28;19918;-80
2021/08/23 02:32:59;;;;;;;;;;;;;;;19.85;100.00;99320.97;5012248;28;20028;-80
2021/08/23 02:35:24;;;;;;;;;;;;;;;19.89;100.00;99327.66;5013750;28;19917;-80
2021/08/23 02:37:50;;;;;;;;;;;;;;;19.37;100.00;99334.41;5009558;28;19929;-80
2021/08/23 02:40:15;;;;;;;;;;;;;;;18.96;100.00;99337.00;5018517;28;19932;-79
2021/08/23 02:42:41;;;;;;;;;;;;;;;18.80;100.00;99348.34;4996503;28;19914;-80
2021/08/23 02:45:07;;;;;;;;;;;;;;;18.76;100.00;99352.03;5012259;28;19968;-81
2021/08/23 02:47:36;;;;;;;;;;;;;;;18.46;100.00;99362.53;5010190;28;20451;-80
2021/08/23 02:50:01;;;;;;;;;;;;;;;18.41;100.00;99367.19;5013958;28;19961;-79
2021/08/23 02:52:26;;;;;;;;;;;;;;;18.62;100.00;99369.47;4996854;28;19967;-80
2021/08/23 02:54:52;;;;;;;;;;;;;;;18.70;100.00;99362.88;5013456;28;20304;-81
2021/08/23 02:57:17;;;;;;;;;;;;;;;18.88;100.00;99366.16;5009565;28;19918;-81
2021/08/23 02:59:42;;;;;;;;;;;;;;;18.99;100.00;99365.50;5012043;28;19918;-81
2021/08/23 03:02:08;;;;;;;;;;;;;;;18.94;100.00;99363.19;4993685;28;19921;-81
2021/08/23 03:04:33;;;;;;;;;;;;;;;19.18;100.00;99360.84;5011630;28;20056;-81
2021/08/23 03:06:58;;;;;;;;;;;;;;;19.02;100.00;99366.16;4995794;28;19918;-81
2021/08/23 03:09:23;;;;;;;;;;;;;;;19.11;100.00;99359.56;5011838;28;19943;-81
2021/08/23 03:11:49;;;;;;;;;;;;;;;18.46;100.00;99365.16;5011830;28;20032;-81
2021/08/23 03:14:14;;;;;;;;;;;;;;;18.56;100.00;99370.66;5013273;28;20296;-81
2021/08/23 03:16:39;;;;;;;;;;;;;;;18.90;100.00;99364.28;5012295;28;19902;-81
2021/08/23 03:19:05;;;;;;;;;;;;;;;18.29;100.00;99379.19;5013175;28;20048;-81
2021/08/23 03:21:30;;;;;;;;;;;;;;;18.17;100.00;99379.88;5011394;28;19921;-80
2021/08/23 03:23:55;;;;;;;;;;;;;;;18.24;100.00;99383.78;4993853;28;19921;-81
2021/08/23 03:26:21;;;;;;;;;;;;;;;18.12;100.00;99389.72;4998951;28;20337;-80
2021/08/23 03:28:46;;;;;;;;;;;;;;;17.92;100.00;99402.09;5010814;28;19960;-80
2021/08/23 03:31:11;;;;;;;;;;;;;;;18.05;100.00;99404.03;5011320;28;19960;-80
2021/08/23 03:33:39;;;;;;;;;;;;;;;18.21;100.00;99410.06;5010047;28;20417;-80
2021/08/23 03:36:04;;;;;;;;;;;;;;;18.02;100.00;99414.59;4998113;28;20388;-81
2021/08/23 03:38:31;;;;;;;;;;;;;;;18.06;100.00;99408.31;5010833;28;19918;-80
2021/08/23 03:40:56;;;;;;;;;;;;;;;17.93;100.00;99413.38;4995845;28;20459;-80
2021/08/23 03:43:21;;;;;;;;;;;;;;;18.16;100.00;99409.47;5012245;28;20016;-79
2021/08/23 03:45:47;;;;;;;;;;;;;;;18.39;100.00;99411.59;4997270;28;19926;-81
2021/08/23 03:48:12;;;;;;;;;;;;;;;18.77;100.00;99405.09;5011800;28;20736;-80
2021/08/23 03:50:37;;;;;;;;;;;;;;;18.51;100.00;99399.59;4997516;28;19933;-80
2021/08/23 03:53:03;;;;;;;;;;;;;;;18.46;100.00;99406.03;5011246;28;19917;-80
2021/08/23 03:55:28;;;;;;;;;;;;;;;18.00;100.00;99411.28;5009325;28;19985;-80
2021/08/23 03:57:53;;;;;;;;;;;;;;;18.64;100.00;99409.34;5012291;28;19968;-81
2021/08/23 04:00:19;;;;;;;;;;;;;;;18.25;100.00;99427.19;4997655;28;20420;-80
2021/08/23 04:02:45;;;;;;;;;;;;;;;18.19;100.00;99422.31;5010703;28;19928;-80
2021/08/23 04:05:10;;;;;;;;;;;;;;;18.48;100.00;99425.06;4996610;28;19917;-81
2021/08/23 04:07:36;;;;;;;;;;;;;;;18.38;100.00;99417.75;4996224;28;19914;-80
2021/08/23 04:10:01;;;;;;;;;;;;;;;18.63;100.00;99411.09;5011262;28;19913;-80
2021/08/23 04:12:26;;;;;;;;;;;;;;;18.48;100.00;99414.63;5013471;28;20359;-80
2021/08/23 04:14:51;;;;;;;;;;;;;;;18.66;100.00;99418.75;5007956;28;19921;-80
2021/08/23 04:17:17;;;;;;;;;;;;;;;18.50;100.00;99421.41;5010917;28;20287;-80
2021/08/23 04:19:42;;;;;;;;;;;;;;;18.41;100.00;99418.50;5016500;28;19914;-79
2021/08/23 04:22:11;;;;;;;;;;;;;;;19.15;100.00;99421.06;5010161;28;19979;-80
2021/08/23 04:24:36;;;;;;;;;;;;;;;19.04;100.00;99412.22;4994109;28;19918;-80
2021/08/23 04:27:01;;;;;;;;;;;;;;;18.79;100.00;99421.50;4991679;28;19917;-80
2021/08/23 04:29:26;;;;;;;;;;;;;;;18.60;100.00;99426.94;5004046;28;20046;-80
2021/08/23 04:31:52;;;;;;;;;;;;;;;18.41;100.00;99445.41;4990672;28;19924;-80
2021/08/23 04:34:17;;;;;;;;;;;;;;;18.52;100.00;99427.41;5008089;28;19921;-80
2021/08/23 04:36:42;;;;;;;;;;;;;;;18.87;100.00;99421.06;5009203;28;19917;-80
2021/08/23 04:39:08;;;;;;;;;;;;;;;18.97;100.00;99424.78;4993400;28;19917;-80
2021/08/23 04:41:37;;;;;;;;;;;;;;;18.14;100.00;99445.22;5005946;28;19936;-80
2021/08/23 04:44:02;;;;;;;;;;;;;;;17.88;100.00;99454.47;5006933;28;20503;-80
2021/08/23 04:46:27;;;;;;;;;;;;;;;18.33;100.00;99456.28;5007983;28;19928;-80
2021/08/23 04:48:53;;;;;;;;;;;;;;;18.52;100.00;99453.47;5010761;28;19917;-80
2021/08/23 04:51:18;;;;;;;;;;;;;;;18.11;100.00;99471.44;5009714;28;19921;-79
2021/08/23 04:53:43;;;;;;;;;;;;;;;18.46;100.00;99468.63;5010510;28;19973;-81
2021/08/23 04:56:09;;;;;;;;;;;;;;;18.45;100.00;99464.31;5012353;28;19913;-80
2021/08/23 04:58:34;;;;;;;;;;;;;;;18.60;100.00;99455.63;5010715;28;19918;-80
2021/08/23 05:01:00;;;;;;;;;;;;;;;18.71;100.00;99463.66;5007859;28;20442;-79
2021/08/23 05:03:26;;;;;;;;;;;;;;;18.22;100.00;99466.47;4990721;28;19924;-79
2021/08/23 05:05:51;;;;;;;;;;;;;;;18.07;100.00;99472.56;5009906;28;19918;-79
2021/08/23 05:08:18;;;;;;;;;;;;;;;17.82;100.00;99473.88;5007529;28;20068;-78
2021/08/23 05:10:43;;;;;;;;;;;;;;;17.85;100.00;99484.13;5008530;28;19913;-80
2021/08/23 05:13:09;;;;;;;;;;;;;;;18.75;100.00;99480.84;5007641;28;19929;-79
2021/08/23 05:15:34;;;;;;;;;;;;;;;17.91;100.00;99483.81;5015924;28;19918;-79
2021/08/23 05:17:59;;;;;;;;;;;;;;;18.62;100.00;99472.03;5009362;28;19921;-80
2021/08/23 05:20:25;;;;;;;;;;;;;;;18.17;100.00;99474.53;5007683;28;19922;-79
2021/08/23 05:22:50;;;;;;;;;;;;;;;18.84;100.00;99476.88;5007455;28;19928;-78
2021/08/23 05:25:15;;;;;;;;;;;;;;;19.08;100.00;99460.69;5007235;28;19918;-78
2021/08/23 05:27:41;;;;;;;;;;;;;;;18.99;100.00;99465.53;4989076;28;19917;-79
2021/08/23 05:30:06;;;;;;;;;;;;;;;19.01;100.00;99465.44;5004744;28;20154;-79
2021/08/23 05:32:32;;;;;;;;;;;;;;;19.20;100.00;99460.81;5005955;28;19920;-79
2021/08/23 05:34:57;;;;;;;;;;;;;;;19.63;100.00;99457.34;5002809;28;19926;-79
2021/08/23 05:37:22;;;;;;;;;;;;;;;19.60;100.00;99458.38;5005410;28;19920;-78
2021/08/23 05:39:48;;;;;;;;;;;;;;;19.69;100.00;99456.16;4991626;28;19918;-79
2021/08/23 05:42:14;;;;;;;;;;;;;;;19.18;100.00;99472.25;5005303;28;20437;-78
2021/08/23 05:44:39;;;;;;;;;;;;;;;18.93;100.00;99468.53;4993105;28;19920;-78
2021/08/23 05:47:05;;;;;;;;;;;;;;;18.68;100.00;99479.50;5005772;28;19918;-77
2021/08/23 05:49:30;;;;;;;;;;;;;;;18.36;100.00;99490.00;5005861;28;19925;-78
2021/08/23 05:51:55;;;;;;;;;;;;;;;18.49;100.00;99486.69;5007404;28;19917;-80
2021/08/23 05:54:21;;;;;;;;;;;;;;;18.11;100.00;99497.50;4990131;28;19917;-79
2021/08/23 05:56:46;;;;;;;;;;;;;;;18.14;100.00;99502.56;5008606;28;20338;-79
2021/08/23 05:59:11;;;;;;;;;;;;;;;18.28;100.00;99507.84;5008233;28;19953;-79
2021/08/23 06:01:37;;;;;;;;;;;;;;;18.37;100.00;99496.91;5006923;28;19957;-78
2021/08/23 06:04:02;;;;;;;;;;;;;;;18.10;100.00;99501.03;4997957;28;20193;-79
2021/08/23 06:06:27;;;;;;;;;;;;;;;18.97;100.00;99495.25;5013021;28;20480;-79
2021/08/23 06:08:53;;;;;;;;;;;;;;;18.80;100.00;99489.25;5011684;28;19924;-79
2021/08/23 06:11:18;;;;;;;;;;;;;;;18.26;100.00;99494.06;4995594;28;19929;-77
2021/08/23 06:13:43;;;;;;;;;;;;;;;18.29;100.00;99493.91;5014616;28;19960;-79
2021/08/23 06:16:09;;;;;;;;;;;;;;;18.68;100.00;99503.00;4996030;28;20347;-80
2021/08/23 06:18:34;;;;;;;;;;;;;;;18.58;100.00;99504.44;5010057;28;19925;-80
2021/08/23 06:21:00;;;;;;;;;;;;;;;18.28;100.00;99513.06;5012388;28;19921;-81
2021/08/23 06:23:26;;;;;;;;;;;;;;;18.52;100.00;99500.41;5011539;28;19917;-81
2021/08/23 06:25:51;;;;;;;;;;;;;;;18.36;100.00;99510.88;5012143;28;20335;-80
2021/08/23 06:28:20;;;;;;;;;;;;;;;18.07;100.00;99509.03;5009554;28;19921;-80
2021/08/23 06:30:45;;;;;;;;;;;;;;;18.61;100.00;99517.31;4994625;28;19910;-80
2021/08/23 06:33:10;;;;;;;;;;;;;;;18.10;100.00;99520.13;5013218;28;19914;-80
2021/08/23 06:35:36;;;;;;;;;;;;;;;18.64;100.00;99509.31;5010679;28;19913;-80
2021/08/23 06:38:01;;;;;;;;;;;;;;;18.32;100.00;99509.34;5008497;28;19923;-80
2021/08/23 06:40:26;;;;;;;;;;;;;;;18.74;100.00;99507.00;5013330;28;19926;-79
2021/08/23 06:42:52;;;;;;;;;;;;;;;18.87;100.00;99505.41;5011143;28;19925;-80
2021/08/23 06:45:17;;;;;;;;;;;;;;;18.65;100.00;99510.97;4993709;28;19926;-80
2021/08/23 06:47:42;;;;;;;;;;;;;;;17.79;100.00;99518.31;4997717;28;19921;-80
2021/08/23 06:50:08;;;;;;;;;;;;;;;17.60;100.00;99531.47;5010270;28;19914;-81
2021/08/23 06:52:33;;;;;;;;;;;;;;;17.96;100.00;99538.28;4995129;28;20004;-79
2021/08/23 06:54:58;;;;;;;;;;;;;;;17.89;100.00;99548.19;5013609;28;19997;-79
2021/08/23 06:57:24;;;;;;;;;;;;;;;17.58;100.00;99548.94;4994179;28;19918;-80
2021/08/23 06:59:50;;;;;;;;;;;;;;;17.65;100.00;99550.31;5012904;28;19976;-80
2021/08/23 07:02:15;;;;;;;;;;;;;;;17.94;100.00;99546.19;4993559;28;19932;-79
2021/08/23 07:04:40;;;;;;;;;;;;;;;17.73;100.00;99560.31;5011259;28;20274;-80
2021/08/23 07:07:06;;;;;;;;;;;;;;;17.53;100.00;99561.34;4987374;28;21237;-79
2021/08/23 07:09:31;;;;;;;;;;;;;;;17.39;100.00;99569.03;5006255;28;19918;-79
2021/08/23 07:11:57;;;;;;;;;;;;;;;17.63;100.00;99577.34;5010843;28;20029;-80
2021/08/23 07:14:22;;;;;;;;;;;;;;;17.07;100.00;99574.94;5009136;28;20041;-78
2021/08/23 07:16:47;;;;;;;;;;;;;;;17.43;100.00;99584.44;5011606;28;20305;-79
2021/08/23 07:19:13;;;;;;;;;;;;;;;18.14;100.00;99573.78;5007373;28;19928;-79
2021/08/23 07:21:38;;;;;;;;;;;;;;;17.87;100.00;99570.03;5013557;28;19926;-79
2021/08/23 07:24:04;;;;;;;;;;;;;;;18.79;100.00;99559.78;5008552;28;19949;-79
2021/08/23 07:26:29;;;;;;;;;;;;;;;17.64;100.00;99579.88;5010446;28;20415;-80
2021/08/23 07:28:54;;;;;;;;;;;;;;;18.36;100.00;99573.47;5008783;28;19922;-78
2021/08/23 07:31:21;;;;;;;;;;;;;;;18.41;100.00;99574.97;5009679;28;20365;-79
2021/08/23 07:33:46;;;;;;;;;;;;;;;18.11;100.00;99578.31;5009103;28;19922;-80
2021/08/23 07:36:11;;;;;;;;;;;;;;;18.30;100.00;99579.00;5010309;28;20296;-79
2021/08/23 07:38:37;;;;;;;;;;;;;;;17.78;100.00;99595.63;5009091;28;19918;-78
2021/08/23 07:41:03;;;;;;;;;;;;;;;17.97;100.00;99590.34;5001168;28;19917;-79
2021/08/23 07:43:29;;;;;;;;;;;;;;;17.87;100.00;99598.72;4993704;28;19920;-79
2021/08/23 07:45:54;;;;;;;;;;;;;;;17.33;100.00;99604.88;5017024;28;19918;-79
2021/08/23 07:48:20;;;;;;;;;;;;;;;17.89;100.00;99599.47;5006303;28;20036;-80
2021/08/23 07:50:45;;;;;;;;;;;;;;;17.91;100.00;99597.63;5011219;28;19913;-81
2021/08/23 07:53:10;;;;;;;;;;;;;;;17.06;100.00;99609.69;5010819;28;19928;-78
2021/08/23 07:55:36;;;;;;;;;;;;;;;17.20;100.00;99616.00;5017769;28;20374;-79
2021/08/23 07:58:01;;;;;;;;;;;;;;;17.63;100.00;99619.88;4995763;28;19918;-79
2021/08/23 08:00:27;;;;;;;;;;;;;;;17.29;100.00;99620.75;5016384;28;19953;-79
2021/08/23 08:02:52;;;;;;;;;;;;;;;18.01;100.00;99621.44;5014641;28;19945;-80
2021/08/23 08:05:18;;;;;;;;;;;;;;;17.59;100.00;99622.72;5019529;28;20309;-80
2021/08/23 08:07:43;;;;;;;;;;;;;;;17.53;100.00;99624.69;5013302;28;19913;-80
2021/08/23 08:10:10;;;;;;;;;;;;;;;17.46;100.00;99628.53;5009961;28;19920;-80
2021/08/23 08:12:36;;;;;;;;;;;;;;;17.35;100.00;99630.81;5007307;28;20000;-79
2021/08/23 08:15:01;;;;;;;;;;;;;;;17.62;100.00;99626.00;5015629;28;20005;-79
2021/08/23 08:17:27;;;;;;;;;;;;;;;17.68;100.00;99637.88;5014568;28;19925;-79
2021/08/23 08:19:52;;;;;;;;;;;;;;;17.52;100.00;99636.03;5008637;28;19961;-79
2021/08/23 08:22:17;;;;;;;;;;;;;;;17.44;100.00;99627.75;5010227;28;20365;-78
2021/08/23 08:24:43;;;;;;;;;;;;;;;17.58;100.00;99642.69;5011160;28;21209;-79
2021/08/23 08:27:08;;;;;;;;;;;;;;;18.64;100.00;99624.09;5016310;28;20032;-80
2021/08/23 08:29:34;;;;;;;;;;;;;;;18.63;100.00;99625.00;4989000;28;20409;-80
2021/08/23 08:31:59;;;;;;;;;;;;;;;18.19;100.00;99623.06;5011693;28;20008;-79
2021/08/23 08:34:24;;;;;;;;;;;;;;;18.60;100.00;99636.47;4995636;28;19918;-79
2021/08/23 08:36:49;;;;;;;;;;;;;;;18.11;100.00;99643.47;4998551;28;20003;-79
2021/08/23 08:39:15;;;;;;;;;;;;;;;18.21;100.00;99641.25;5009842;28;19917;-79
2021/08/23 08:41:40;;;;;;;;;;;;;;;18.06;100.00;99646.31;5017555;28;19924;-80
2021/08/23 08:44:06;;;;;;;;;;;;;;;18.33;100.00;99645.78;4994651;28;19913;-80
2021/08/23 08:46:34;;;;;;;;;;;;;;;18.15;100.00;99650.22;5011926;28;19953;-79
2021/08/23 08:48:59;;;;;;;;;;;;;;;18.13;100.00;99647.72;5007866;28;19922;-79
2021/08/23 08:51:25;;;;;;;;;;;;;;;18.26;100.00;99666.13;5000699;28;19999;-79
2021/08/23 08:53:50;;;;;;;;;;;;;;;18.00;100.00;99661.47;5019401;28;19944;-79
2021/08/23 08:56:16;;;;;;;;;;;;;;;17.11;100.00;99679.75;5012548;28;20366;-78
2021/08/23 08:58:41;;;;;;;;;;;;;;;17.63;100.00;99681.53;5012163;28;19917;-78
2021/08/23 09:01:06;;;;;;;;;;;;;;;17.43;100.00;99685.97;4994694;28;19929;-77
2021/08/23 09:03:32;;;;;;;;;;;;;;;17.69;100.00;99684.66;5012035;28;19920;-78
2021/08/23 09:06:00;;;;;;;;;;;;;;;18.22;100.00;99682.84;5013286;28;20381;-79
2021/08/23 09:08:28;;;;;;;;;;;;;;;17.73;100.00;99678.38;4997618;28;20522;-79
2021/08/23 09:10:54;;;;;;;;;;;;;;;18.07;100.00;99689.72;4997097;28;19976;-78
2021/08/23 09:13:19;;;;;;;;;;;;;;;17.54;100.00;99688.06;5008885;28;19945;-78
2021/08/23 09:15:52;;;;;;;;;;;;;;;18.27;100.00;99687.81;5009660;28;19914;-78
2021/08/23 09:18:27;;;;;;;;;;;;;;;17.54;100.00;99683.69;5015284;28;19925;-79
2021/08/23 09:21:04;;;;;;;;;;;;;;;17.63;100.00;99697.16;5008003;28;20308;-79
2021/08/23 09:23:35;;;;;;;;;;;;;;;17.58;100.00;99699.97;5011788;28;19992;-80
2021/08/23 09:26:07;;;;;;;;;;;;;;;17.76;100.00;99693.00;5001093;28;19913;-80
2021/08/23 09:28:41;;;;;;;;;;;;;;;18.51;100.00;99688.28;5016694;28;19921;-79
2021/08/23 09:31:11;;;;;;;;;;;;;;;17.97;100.00;99699.78;5012010;28;19914;-79
2021/08/23 09:33:56;;;;;;;;;;;;;;;18.27;100.00;99699.13;5012138;28;19961;-79
2021/08/23 09:36:21;;;;;;;;;;;;;;;18.29;100.00;99702.50;5002019;28;19914;-80
2021/08/23 09:38:59;;;;;;;;;;;;;;;18.26;100.00;99694.81;5015760;28;19922;-79
2021/08/23 09:41:26;;;;;;;;;;;;;;;18.88;100.00;99683.72;5000193;28;19918;-79
2021/08/23 09:44:05;;;;;;;;;;;;;;;18.65;100.00;99688.38;5012440;28;19924;-79
2021/08/23 09:46:33;;;;;;;;;;;;;;;19.37;100.00;99688.78;4998800;28;19914;-80
2021/08/23 09:48:59;;;;;;;;;;;;;;;19.26;100.00;99693.78;5015464;28;19917;-83
2021/08/23 09:51:25;;;;;;;;;;;;;;;19.49;100.00;99695.06;4996942;28;19915;-79
2021/08/23 09:53:52;;;;;;;;;;;;;;;19.36;100.00;99694.91;5013192;28;19921;-80
2021/08/23 09:56:17;;;;;;;;;;;;;;;19.38;100.00;99693.06;5014583;28;19921;-78
2021/08/23 09:58:42;;;;;;;;;;;;;;;18.74;100.00;99703.53;5015649;28;20281;-79
2021/08/23 10:01:07;;;;;;;;;;;;;;;19.26;100.00;99709.44;5011868;28;19922;-78
2021/08/23 10:03:33;;;;;;;;;;;;;;;18.89;100.00;99711.50;5011704;28;20476;-78
2021/08/23 10:05:58;;;;;;;;;;;;;;;19.85;100.00;99698.16;5012248;28;19921;-79
2021/08/23 10:08:24;;;;;;;;;;;;;;;20.32;100.00;99692.78;4998396;28;19917;-78
2021/08/23 10:10:50;;;;;;;;;;;;;;;19.58;100.00;99694.53;5013699;28;19972;-79
2021/08/23 10:13:15;;;;;;;;;;;;;;;19.72;100.00;99701.59;5012180;28;20838;-80
2021/08/23 10:15:40;;;;;;;;;;;;;;;19.97;100.00;99693.97;5016915;28;19921;-79
2021/08/23 10:18:06;;;;;;;;;;;;;;;20.03;100.00;99698.84;5015773;28;19921;-79
2021/08/23 10:20:32;;;;;;;;;;;;;;;20.48;100.00;99689.16;5014397;28;20277;-79
2021/08/23 10:22:57;;;;;;;;;;;;;;;19.11;100.00;99722.44;5002139;28;20008;-79
2021/08/23 10:25:22;;;;;;;;;;;;;;;20.04;100.00;99702.31;5014314;28;20442;-78
2021/08/23 10:27:48;;;;;;;;;;;;;;;20.04;100.00;99702.31;5013926;28;19913;-78
2021/08/23 10:30:20;;;;;;;;;;;;;;;20.09;100.00;99700.25;4998096;28;19918;-78
2021/08/23 10:32:46;;;;;;;;;;;;;;;20.35;100.00;99696.06;5012806;28;19922;-79
2021/08/23 10:35:21;;;;;;;;;;;;;;;19.48;100.00;99704.69;5014167;28;20467;-79
2021/08/23 10:37:47;;;;;;;;;;;;;;;19.76;100.00;99703.13;5013754;28;20411;-78
2021/08/23 10:40:12;;;;;;;;;;;;;;;20.42;100.00;99692.13;5012047;28;19918;-78
2021/08/23 10:42:38;;;;;;;;;;;;;;;19.62;100.00;99709.13;5015659;28;20412;-79
2021/08/23 10:45:04;;;;;;;;;;;;;;;19.57;100.00;99709.38;5014295;28;19924;-78
2021/08/23 10:47:30;;;;;;;;;;;;;;;20.05;100.00;99698.78;5011508;28;19914;-78
2021/08/23 10:49:55;;;;;;;;;;;;;;;19.72;100.00;99707.66;5017186;28;20468;-80
2021/08/23 10:52:29;;;;;;;;;;;;;;;19.48;100.00;99714.28;5011773;28;20276;-79
2021/08/23 10:54:54;;;;;;;;;;;;;;;20.35;100.00;99706.53;5011647;28;20389;-79
2021/08/23 10:57:21;;;;;;;;;;;;;;;20.83;100.00;99704.44;4995883;28;20004;-79
2021/08/23 10:59:50;;;;;;;;;;;;;;;20.35;100.00;99713.53;4998524;28;19920;-79
2021/08/23 11:02:30;;;;;;;;;;;;;;;20.85;100.00;99701.75;5014598;28;19948;-79
2021/08/23 11:04:55;;;;;;;;;;;;;;;21.02;100.00;99696.25;5000128;28;19918;-79
2021/08/23 11:07:27;;;;;;;;;;;;;;;20.79;100.00;99699.50;4993699;28;19921;-79
2021/08/23 11:10:05;;;;;;;;;;;;;;;20.78;100.00;99698.66;5012247;28;19926;-79
2021/08/23 11:12:50;;;;;;;;;;;;;;;20.13;100.00;99706.97;4996040;28;19926;-79
2021/08/23 11:15:17;;;;;;;;;;;;;;;20.04;100.00;99718.81;4996071;28;19914;-79
2021/08/23 11:17:43;;;;;;;;;;;;;;;19.91;100.00;99717.91;4999223;28;19983;-80
2021/08/23 11:20:09;;;;;;;;;;;;;;;20.57;100.00;99713.94;5018718;28;19913;-79
2021/08/23 11:22:34;;;;;;;;;;;;;;;20.34;100.00;99715.28;4998616;28;20580;-79
2021/08/23 11:25:00;;;;;;;;;;;;;;;20.37;100.00;99717.75;5000256;28;20353;-79
2021/08/23 11:27:25;;;;;;;;;;;;;;;20.05;100.00;99714.47;5012440;28;19917;-79
2021/08/23 11:29:55;;;;;;;;;;;;;;;19.76;100.00;99726.63;5009402;28;19918;-78
2021/08/23 11:32:27;;;;;;;;;;;;;;;20.39;100.00;99722.84;5010126;28;20001;-78
2021/08/23 11:34:54;;;;;;;;;;;;;;;20.18;100.00;99709.31;5015145;28;19917;-79
2021/08/23 11:37:23;;;;;;;;;;;;;;;20.49;100.00;99721.38;4999772;28;19945;-77
2021/08/23 11:39:49;;;;;;;;;;;;;;;20.84;100.00;99719.19;5016850;28;19941;-79
2021/08/23 11:42:15;;;;;;;;;;;;;;;19.84;100.00;99721.78;5016250;28;19949;-78
2021/08/23 11:44:41;;;;;;;;;;;;;;;19.73;100.00;99718.94;5015389;28;19921;-80
2021/08/23 11:47:07;;;;;;;;;;;;;;;19.87;100.00;99729.47;5013843;28;19914;-79
2021/08/23 11:49:33;;;;;;;;;;;;;;;19.71;100.00;99728.69;5012574;28;20382;-76
2021/08/23 11:51:59;;;;;;;;;;;;;;;19.11;100.00;99726.81;5014260;28;19992;-80
2021/08/23 11:54:24;;;;;;;;;;;;;;;18.82;100.00;99731.88;5020956;28;19918;-80
2021/08/23 11:56:49;;;;;;;;;;;;;;;18.93;100.00;99734.75;5014495;28;20362;-78
2021/08/23 11:59:15;;;;;;;;;;;;;;;18.79;100.00;99738.09;4998919;28;20393;-78
2021/08/23 12:01:40;;;;;;;;;;;;;;;19.83;100.00;99741.03;5010489;28;19925;-78
2021/08/23 12:04:05;;;;;;;;;;;;;;;19.88;100.00;99733.75;5013360;28;20400;-79
2021/08/23 12:06:34;;;;;;;;;;;;;;;19.41;100.00;99737.31;4996082;28;19924;-79
2021/08/23 12:09:00;;;;;;;;;;;;;;;19.35;100.00;99732.44;5010187;28;19914;-78
2021/08/23 12:11:26;;;;;;;;;;;;;;;19.80;100.00;99730.75;4997119;28;19928;-78
2021/08/23 12:13:51;;;;;;;;;;;;;;;19.60;100.00;99730.09;4998193;28;19917;-78
2021/08/23 12:16:17;;;;;;;;;;;;;;;20.08;100.00;99731.75;5011396;28;20088;-77
2021/08/23 12:18:43;;;;;;;;;;;;;;;21.65;100.00;99721.00;5015611;28;20004;-79
2021/08/23 12:21:12;;;;;;;;;;;;;;;22.15;100.00;99713.28;5010328;28;19940;-78
2021/08/23 12:23:43;;;;;;;;;;;;;;;21.47;100.00;99714.34;5009104;28;19918;-78
2021/08/23 12:26:08;;;;;;;;;;;;;;;21.60;100.00;99720.47;4995894;28;20483;-80
2021/08/23 12:28:33;;;;;;;;;;;;;;;21.40;100.00;99721.78;4995951;28;19913;-79
2021/08/23 12:31:05;;;;;;;;;;;;;;;20.90;100.00;99720.59;4992620;28;20192;-79
2021/08/23 12:33:31;;;;;;;;;;;;;;;21.91;100.00;99715.78;4994791;28;20432;-78